Aspen (ASE/KASE)

Map

Destinations

Information

Location
Aspen, CO
Local Time
19:01 / 7:01 pm
GMT Time
01:01 / 1:01 am
Gates
Unassigned
No FAA reported delays
METAR KASE 240053Z 31007KT 10SM CLR 22/04 A3027 RMK AO2 SLP131 T02170039
TAF KASE 232323Z 2400/2424 29005KT P6SM SCT150 FM240300 16004KT P6SM FEW200 FM241700 32006KT P6SM SCT200